Time;durP1;ratioP1;P1;durP2;ratioP2;P2;SDS_P1;SDS_P2;PMS_P1;PMS_P2;Temp;Humidity;BMP_temperature;BMP_pressure;BME280_temperature;BME280_humidity;BME280_pressure;Samples;Min_cycle;Max_cycle;Signal;HPM_P1;HPM_P2
2023/10/11 00:03:35;;;;;;;1.30;0.83;;;;;;;19.52;55.34;97072.50;10293645;28;20042;-28
2023/10/11 00:08:41;;;;;;;2.22;1.08;;;;;;;19.54;55.03;97075.06;10292528;28;20096;-28
2023/10/11 00:13:41;;;;;;;1.50;0.95;;;;;;;19.49;55.28;97064.91;10289726;28;20035;-29
2023/10/11 00:18:42;;;;;;;2.33;1.10;;;;;;;19.49;55.01;97074.22;10299558;28;20051;-29
2023/10/11 00:23:44;;;;;;;2.05;1.27;;;;;;;19.50;55.04;97075.91;10286525;28;20105;-29
2023/10/11 00:28:47;;;;;;;2.17;1.48;;;;;;;19.49;55.00;97079.31;10288510;28;20564;-29
2023/10/11 00:33:48;;;;;;;3.13;1.35;;;;;;;19.47;54.89;97079.28;10292752;28;20058;-29
2023/10/11 00:38:50;;;;;;;2.85;1.50;;;;;;;19.50;54.67;97074.22;10290306;28;20054;-29
2023/10/11 00:43:52;;;;;;;4.30;1.77;;;;;;;19.49;54.43;97071.69;10290370;28;20117;-28
2023/10/11 00:54:22;;;;;;;3.58;2.17;;;;;;;19.48;54.38;97063.22;10281570;28;20544;-29
2023/10/11 00:59:23;;;;;;;2.67;1.60;;;;;;;19.45;54.34;97053.06;10284167;28;20034;-28
2023/10/11 01:04:27;;;;;;;4.23;1.90;;;;;;;19.46;54.31;97052.22;10294745;28;20066;-29
2023/10/11 01:09:29;;;;;;;5.75;2.13;;;;;;;19.44;54.38;97046.25;10293466;28;20298;-28
2023/10/11 01:14:36;;;;;;;3.08;2.20;;;;;;;19.48;54.31;97047.09;10290607;28;20050;-28
2023/10/11 01:19:37;;;;;;;4.55;1.98;;;;;;;19.49;53.66;97043.75;10289594;28;20066;-29
2023/10/11 01:24:41;;;;;;;3.38;1.80;;;;;;;19.46;54.09;97034.44;10288365;28;20062;-29
2023/10/11 01:29:41;;;;;;;4.75;2.75;;;;;;;19.46;54.14;97043.72;10299933;28;20401;-28
2023/10/11 01:34:44;;;;;;;4.88;2.50;;;;;;;19.47;54.00;97035.25;10286044;28;20034;-29
2023/10/11 01:39:46;;;;;;;5.88;3.22;;;;;;;19.45;53.80;97032.75;10289649;28;20058;-31
2023/10/11 01:44:46;;;;;;;4.78;1.90;;;;;;;19.43;53.82;97023.41;10271537;28;20062;-28
2023/10/11 01:49:47;;;;;;;4.93;2.07;;;;;;;19.41;53.82;97020.03;10284588;28;20038;-28
2023/10/11 01:54:47;;;;;;;6.65;1.98;;;;;;;19.42;53.91;97021.72;10292183;28;20049;-28
2023/10/11 01:59:47;;;;;;;4.10;2.37;;;;;;;19.43;53.58;97023.41;10283114;28;20034;-29
2023/10/11 02:04:48;;;;;;;4.73;1.70;;;;;;;19.42;53.72;97020.03;10287598;28;20038;-29
2023/10/11 02:09:49;;;;;;;3.20;1.85;;;;;;;19.44;53.38;97020.88;10280058;28;20034;-29
2023/10/11 02:14:50;;;;;;;6.80;2.63;;;;;;;19.43;53.72;97010.72;10281946;28;20034;-28
2023/10/11 02:19:54;;;;;;;4.40;2.13;;;;;;;19.42;53.87;97016.66;10287997;28;20027;-30
2023/10/11 02:24:59;;;;;;;5.33;2.53;;;;;;;19.43;53.42;97019.16;10280221;28;20031;-29
2023/10/11 02:30:01;;;;;;;5.95;2.40;;;;;;;19.42;53.16;97012.41;10275485;28;20037;-29
2023/10/11 02:35:06;;;;;;;4.80;2.28;;;;;;;19.41;53.39;97012.44;10278599;28;20095;-29
2023/10/11 02:40:10;;;;;;;3.35;2.20;;;;;;;19.40;53.42;97013.25;10280640;28;20055;-29
2023/10/11 02:45:12;;;;;;;7.28;3.00;;;;;;;19.38;53.25;97002.25;10280177;28;20038;-29
2023/10/11 02:50:13;;;;;;;3.90;2.58;;;;;;;19.40;53.16;96998.00;10284523;28;20027;-29
2023/10/11 03:00:23;;;;;;;4.45;2.33;;;;;;;19.41;53.03;96999.72;10277321;28;20041;-28
2023/10/11 03:05:28;;;;;;;4.60;2.70;;;;;;;19.45;53.07;97003.94;10284698;28;20034;-28
2023/10/11 03:10:35;;;;;;;4.95;2.42;;;;;;;19.44;52.20;96999.72;10284666;28;20464;-28
2023/10/11 03:15:38;;;;;;;3.08;2.10;;;;;;;19.42;52.93;97002.25;10280361;28;20039;-28
2023/10/11 03:20:39;;;;;;;5.18;2.45;;;;;;;19.41;53.56;97004.81;10283936;28;20118;-29
2023/10/11 03:25:44;;;;;;;6.37;2.93;;;;;;;19.39;52.81;96991.25;10279627;28;20027;-28
2023/10/11 03:30:44;;;;;;;6.47;2.22;;;;;;;19.43;52.93;96998.03;10279238;28;20298;-28
2023/10/11 03:35:45;;;;;;;6.75;2.38;;;;;;;19.38;52.94;96984.47;10289204;28;20026;-28
2023/10/11 03:40:54;;;;;;;5.20;2.47;;;;;;;19.39;52.78;96986.16;10292925;28;20057;-29
2023/10/11 03:45:59;;;;;;;4.25;2.30;;;;;;;19.38;52.61;96994.63;10282454;28;20069;-29
2023/10/11 03:50:59;;;;;;;6.82;2.92;;;;;;;19.37;53.02;96992.94;10285562;28;20031;-28
2023/10/11 03:56:01;;;;;;;5.63;2.50;;;;;;;19.36;52.86;96991.25;10288772;28;20035;-29
2023/10/11 04:01:23;;;;;;;6.07;2.63;;;;;;;19.37;52.49;96986.19;10282542;28;20038;-30
2023/10/11 04:06:23;;;;;;;4.75;2.28;;;;;;;19.39;52.44;96981.09;10279746;28;20536;-29
2023/10/11 04:11:58;;;;;;;8.37;2.63;;;;;;;19.38;52.52;96979.41;10290886;28;20043;-28
2023/10/11 04:16:55;;;;;;;4.95;2.65;;;;;;;19.35;52.40;96979.41;10289213;28;20070;-29
2023/10/11 04:21:56;;;;;;;5.43;2.85;;;;;;;19.39;52.08;96976.00;10287620;28;20445;-30
2023/10/11 04:27:45;;;;;;;2.80;2.08;;;;;;;19.41;52.49;96989.56;10283205;28;20039;-30
2023/10/11 04:37:43;;;;;;;5.70;2.13;;;;;;;19.41;52.30;96992.13;10277979;28;20062;-29
2023/10/11 04:42:44;;;;;;;5.47;2.58;;;;;;;19.45;52.05;96991.25;10290816;28;20051;-29
2023/10/11 04:47:51;;;;;;;5.53;2.92;;;;;;;19.44;51.98;96994.63;10277527;28;20062;-29
2023/10/11 04:52:56;;;;;;;10.32;3.47;;;;;;;19.40;52.41;96990.38;10282092;28;20034;-30
2023/10/11 04:58:07;;;;;;;8.35;4.30;;;;;;;19.46;51.72;96988.72;10279836;28;20117;-30
2023/10/11 05:03:09;;;;;;;9.77;3.20;;;;;;;19.46;51.94;96992.94;10280290;28;20038;-29
2023/10/11 05:08:21;;;;;;;6.53;3.45;;;;;;;19.45;51.79;96998.88;10287217;28;20042;-29
2023/10/11 05:13:36;;;;;;;4.07;2.60;;;;;;;19.43;52.01;96998.03;10290988;28;20037;-29
2023/10/11 05:18:38;;;;;;;8.60;3.83;;;;;;;19.45;51.57;96996.34;10294559;28;20057;-29
2023/10/11 05:24:14;;;;;;;13.25;3.42;;;;;;;19.40;51.90;96983.63;10278024;28;20124;-29
2023/10/11 05:29:31;;;;;;;11.10;3.25;;;;;;;19.35;49.81;96989.56;10286482;28;20511;-29
2023/10/11 05:34:49;;;;;;;9.32;3.03;;;;;;;19.41;51.21;96998.03;10278328;28;20129;-29
2023/10/11 05:55:51;;;;;;;9.93;3.00;;;;;;;19.39;51.98;97001.41;10275790;28;20031;-29
2023/10/11 06:00:53;;;;;;;4.53;2.35;;;;;;;19.39;51.58;97006.47;10275170;28;20045;-29
2023/10/11 06:05:53;;;;;;;4.55;2.30;;;;;;;19.37;51.68;97024.28;10287599;28;20034;-29
2023/10/11 06:10:55;;;;;;;5.73;3.33;;;;;;;19.38;51.51;97027.63;10288733;28;20046;-30
2023/10/11 06:16:02;;;;;;;6.93;3.10;;;;;;;19.36;51.53;97021.72;10284412;28;20073;-30
2023/10/11 06:21:05;;;;;;;6.55;2.83;;;;;;;19.37;51.61;97023.41;10288407;28;20541;-29
2023/10/11 06:31:33;;;;;;;4.70;2.50;;;;;;;19.37;51.76;97018.31;10285938;28;20512;-29
2023/10/11 06:36:35;;;;;;;;;;;;;;;19.36;51.31;97021.72;10287498;28;20041;-30
2023/10/11 06:41:43;;;;;;;4.63;2.75;;;;;;;19.39;51.36;97024.25;10287988;28;19917;-29
2023/10/11 06:46:47;;;;;;;6.10;2.90;;;;;;;19.33;51.61;97011.56;10283977;28;20034;-29
2023/10/11 06:51:50;;;;;;;4.60;2.60;;;;;;;19.37;51.31;97019.19;10282460;28;20489;-30
2023/10/11 06:56:51;;;;;;;7.60;3.17;;;;;;;19.38;51.72;97009.88;10273055;28;20065;-30
2023/10/11 07:01:51;;;;;;;3.57;2.07;;;;;;;19.37;51.50;97018.31;10283033;28;20028;-30
2023/10/11 07:06:51;;;;;;;3.13;2.37;;;;;;;19.41;51.41;97017.50;10272043;28;20050;-29
2023/10/11 07:17:12;;;;;;;4.20;2.35;;;;;;;19.37;51.19;97025.94;10278004;28;20449;-29
2023/10/11 07:22:18;;;;;;;4.93;2.25;;;;;;;19.36;51.67;97031.88;10282880;28;20031;-30
2023/10/11 07:27:26;;;;;;;5.70;3.47;;;;;;;19.36;51.45;97042.03;10285478;28;20066;-29
2023/10/11 07:32:27;;;;;;;4.47;2.53;;;;;;;19.39;51.43;97036.94;10285667;28;20043;-29
2023/10/11 07:37:27;;;;;;;4.53;2.22;;;;;;;19.37;51.31;97046.25;10285327;28;20035;-30
2023/10/11 07:42:36;;;;;;;6.20;3.00;;;;;;;19.37;51.57;97044.59;10285456;28;20409;-30
2023/10/11 07:47:37;;;;;;;8.10;2.70;;;;;;;19.38;51.59;97040.34;10285630;28;20042;-29
2023/10/11 07:52:37;;;;;;;4.40;2.17;;;;;;;19.37;51.57;97043.72;10284009;28;20517;-30
2023/10/11 07:57:44;;;;;;;5.72;2.58;;;;;;;19.37;51.61;97038.63;10271729;28;21254;-29
2023/10/11 08:02:56;;;;;;;5.57;2.22;;;;;;;19.38;51.67;97038.66;10283614;28;20035;-29
2023/10/11 08:07:56;;;;;;;4.90;2.47;;;;;;;19.42;51.67;97047.13;10284627;28;20045;-30
2023/10/11 08:12:59;;;;;;;6.20;2.90;;;;;;;19.41;51.67;97040.34;10285070;28;20457;-30
2023/10/11 08:18:00;;;;;;;3.88;2.58;;;;;;;19.41;51.66;97036.09;10278873;28;20513;-29
2023/10/11 08:23:01;;;;;;;3.27;2.00;;;;;;;19.42;51.63;97032.72;10289748;28;20031;-30
2023/10/11 08:28:28;;;;;;;4.80;2.95;;;;;;;19.45;51.69;97036.97;10291808;28;20046;-29
2023/10/11 08:33:25;;;;;;;5.55;2.40;;;;;;;19.47;51.77;97030.19;10284482;28;20047;-29
2023/10/11 08:38:27;;;;;;;3.88;2.33;;;;;;;19.46;51.79;97019.19;10291714;28;20038;-29
2023/10/11 08:43:28;;;;;;;5.05;2.10;;;;;;;19.46;52.11;97018.34;10291087;28;20038;-30
2023/10/11 08:48:29;;;;;;;6.30;2.35;;;;;;;19.41;52.04;97020.03;10291797;28;20129;-29
2023/10/11 08:53:31;;;;;;;3.20;1.95;;;;;;;19.47;52.29;97041.19;10285098;28;20122;-29
2023/10/11 08:58:33;;;;;;;4.50;2.53;;;;;;;19.48;52.25;97045.44;10287965;28;20031;-30
2023/10/11 09:03:39;;;;;;;4.68;2.20;;;;;;;19.48;52.20;97047.97;10283096;28;20113;-30
2023/10/11 09:08:40;;;;;;;;;;;;;;;19.48;52.42;97031.88;10290759;28;20069;-29
2023/10/11 09:13:40;;;;;;;4.00;2.05;;;;;;;19.48;52.60;97031.88;10290090;28;19914;-30
2023/10/11 09:18:46;;;;;;;4.18;2.28;;;;;;;19.44;52.53;97025.94;10285143;28;20030;-29
2023/10/11 09:23:46;;;;;;;4.13;2.25;;;;;;;19.48;51.93;97027.66;10279323;28;20046;-30
2023/10/11 09:28:56;;;;;;;3.33;2.00;;;;;;;19.49;52.81;97043.75;10287719;28;20038;-29
2023/10/11 09:34:04;;;;;;;4.20;1.90;;;;;;;19.50;52.96;97042.91;10288179;28;20073;-30
2023/10/11 09:39:04;;;;;;;3.08;2.13;;;;;;;19.49;52.93;97044.59;10285501;28;20041;-29
2023/10/11 09:44:12;;;;;;;5.07;2.40;;;;;;;19.50;52.76;97042.91;10272733;28;20043;-29
2023/10/11 09:49:13;;;;;;;2.75;1.88;;;;;;;19.50;53.00;97037.81;10278156;28;20471;-31
2023/10/11 09:54:14;;;;;;;2.95;1.75;;;;;;;19.49;52.84;97044.59;10282125;28;20037;-29
2023/10/11 09:59:41;;;;;;;3.33;2.00;;;;;;;19.50;53.07;97045.44;10284140;28;20041;-30
2023/10/11 10:04:49;;;;;;;3.15;1.85;;;;;;;19.49;52.99;97038.69;10283814;28;20050;-29
2023/10/11 10:09:52;;;;;;;4.07;1.95;;;;;;;19.51;53.26;97029.34;10269871;28;20039;-29
2023/10/11 10:15:07;;;;;;;3.08;1.98;;;;;;;19.50;53.25;97035.28;10287798;28;20039;-30
2023/10/11 10:20:44;;;;;;;3.55;1.77;;;;;;;19.51;53.34;97021.75;10287011;28;20034;-29
2023/10/11 10:26:06;;;;;;;4.13;1.70;;;;;;;19.50;53.26;97023.41;10285905;28;20043;-30
2023/10/11 10:31:09;;;;;;;4.07;1.60;;;;;;;19.50;53.35;97020.88;10284782;28;20043;-29
2023/10/11 10:36:20;;;;;;;5.18;2.13;;;;;;;19.51;53.27;97011.59;10272433;28;20039;-29
2023/10/11 10:41:25;;;;;;;3.25;1.77;;;;;;;19.51;53.73;97014.13;10277509;28;20035;-30
2023/10/11 10:46:25;;;;;;;2.08;1.45;;;;;;;19.44;53.73;97000.53;10270982;28;20054;-30
2023/10/11 10:51:35;;;;;;;2.57;1.67;;;;;;;19.51;53.65;97001.41;10278826;28;20374;-30
2023/10/11 10:56:36;;;;;;;4.05;1.55;;;;;;;19.51;53.56;96997.16;10286811;28;20556;-29
2023/10/11 11:01:36;;;;;;;3.22;2.13;;;;;;;19.51;53.61;96983.66;10286106;28;20118;-29
2023/10/11 11:06:38;;;;;;;2.22;1.77;;;;;;;19.47;54.05;96974.31;10286761;28;20038;-28
2023/10/11 11:11:39;;;;;;;2.50;1.45;;;;;;;19.52;53.98;96972.63;10286014;28;20030;-28
2023/10/11 11:16:41;;;;;;;2.03;1.48;;;;;;;19.51;53.64;96970.94;10284847;28;20413;-30
2023/10/11 11:21:46;;;;;;;2.53;1.40;;;;;;;19.51;53.78;96970.94;10271254;28;20034;-29
2023/10/11 11:26:47;;;;;;;5.43;2.15;;;;;;;19.52;53.65;96965.00;10270672;28;20049;-29
2023/10/11 11:31:52;;;;;;;2.85;1.67;;;;;;;19.52;53.82;96962.47;10283853;28;20429;-30
2023/10/11 11:37:00;;;;;;;4.50;2.40;;;;;;;19.51;53.68;96946.38;10279606;28;20675;-31
2023/10/11 11:42:01;;;;;;;3.33;2.15;;;;;;;19.53;54.01;96938.78;10270899;28;20032;-30
2023/10/11 11:47:05;;;;;;;7.70;2.92;;;;;;;19.52;53.73;96934.53;10284319;28;20043;-29
2023/10/11 11:52:06;;;;;;;4.63;2.47;;;;;;;19.50;54.05;96926.09;10283558;28;20070;-30
2023/10/11 11:57:07;;;;;;;7.47;2.40;;;;;;;19.54;54.02;96925.22;10286733;28;20069;-31
2023/10/11 12:02:16;;;;;;;2.80;1.75;;;;;;;19.55;54.24;96922.69;10280171;28;20039;-29
2023/10/11 12:07:17;;;;;;;12.80;3.78;;;;;;;19.53;53.92;96911.69;10288507;28;20504;-29
2023/10/11 12:12:17;;;;;;;3.47;1.77;;;;;;;19.55;54.17;96916.75;10294372;28;20122;-29
2023/10/11 12:17:18;;;;;;;6.07;2.30;;;;;;;19.54;54.10;96913.38;10290872;28;20039;-33
2023/10/11 12:22:21;;;;;;;10.90;3.13;;;;;;;19.55;54.06;96911.69;10293490;28;20572;-29
2023/10/11 12:27:22;;;;;;;13.57;3.92;;;;;;;19.58;55.38;96912.53;10283908;28;20035;-28
2023/10/11 12:32:22;;;;;;;10.30;2.53;;;;;;;19.57;54.17;96899.81;10293692;28;20846;-29
2023/10/11 12:37:23;;;;;;;10.03;3.63;;;;;;;19.55;54.88;96902.38;10291409;28;20049;-29
2023/10/11 12:42:23;;;;;;;8.90;3.73;;;;;;;19.59;54.98;96890.53;10291355;28;20031;-29
2023/10/11 12:47:23;;;;;;;6.50;2.80;;;;;;;19.56;54.16;96895.59;10291636;28;20045;-29
2023/10/11 12:52:30;;;;;;;7.37;2.30;;;;;;;19.52;54.11;96876.13;10283258;28;20042;-29
2023/10/11 12:57:30;;;;;;;6.78;2.45;;;;;;;19.55;53.96;96898.97;10278751;28;20035;-30
2023/10/11 13:02:33;;;;;;;5.83;2.10;;;;;;;19.53;54.09;96893.91;10275991;28;20034;-30
2023/10/11 13:07:36;;;;;;;2.95;1.80;;;;;;;19.54;53.91;96885.44;10281699;28;20070;-30
2023/10/11 13:12:37;;;;;;;2.97;1.95;;;;;;;19.53;54.15;96882.91;10276505;28;20039;-31
2023/10/11 13:17:40;;;;;;;6.05;2.05;;;;;;;19.55;53.99;96881.19;10277207;28;20039;-29
2023/10/11 13:22:40;;;;;;;4.68;1.90;;;;;;;19.54;54.26;96887.13;10289904;28;20043;-29
2023/10/11 13:27:42;;;;;;;6.70;2.73;;;;;;;19.54;54.04;96874.44;10288134;28;20045;-29
2023/10/11 13:32:43;;;;;;;4.25;1.98;;;;;;;19.47;54.74;96873.59;10289669;28;20035;-29
2023/10/11 13:37:46;;;;;;;7.43;2.03;;;;;;;19.54;54.50;96864.28;10289721;28;20046;-29
2023/10/11 13:42:46;;;;;;;4.90;2.30;;;;;;;19.56;54.46;96849.88;10285871;28;20035;-29
2023/10/11 13:47:51;;;;;;;3.87;1.87;;;;;;;19.57;54.47;96849.00;10266023;28;20034;-29
2023/10/11 13:52:54;;;;;;;3.60;2.28;;;;;;;19.59;54.79;96848.16;10278491;28;20042;-29
2023/10/11 13:57:55;;;;;;;5.63;2.85;;;;;;;19.60;54.43;96841.41;10282662;28;20027;-29
2023/10/11 14:03:30;;;;;;;5.47;2.78;;;;;;;19.61;54.39;96835.47;10287798;28;20034;-29
2023/10/11 14:08:25;;;;;;;8.15;3.45;;;;;;;19.59;54.83;96837.19;10282902;28;20035;-29
2023/10/11 14:13:27;;;;;;;7.15;3.35;;;;;;;19.58;54.57;96838.03;10281316;28;20624;-29
2023/10/11 14:18:30;;;;;;;8.07;3.17;;;;;;;19.59;54.56;96832.94;10275028;28;20041;-29
2023/10/11 14:23:30;;;;;;;8.93;3.08;;;;;;;19.58;54.09;96822.81;10275643;28;20038;-29
2023/10/11 14:28:31;;;;;;;5.13;2.77;;;;;;;19.58;54.34;96820.25;10288941;28;20041;-30
2023/10/11 14:33:33;;;;;;;10.97;5.10;;;;;;;19.58;54.41;96810.94;10279115;28;20117;-30
2023/10/11 14:38:33;;;;;;;11.88;6.43;;;;;;;19.59;54.36;96811.78;10285485;28;20045;-29
2023/10/11 14:43:34;;;;;;;13.10;4.45;;;;;;;19.61;54.46;96820.25;10282941;28;20412;-29
2023/10/11 14:48:35;;;;;;;11.60;3.83;;;;;;;19.60;54.58;96819.38;10275630;28;20101;-29
2023/10/11 14:53:35;;;;;;;7.07;4.43;;;;;;;19.63;54.73;96805.84;10278016;28;20065;-29
2023/10/11 14:58:36;;;;;;;7.93;3.63;;;;;;;19.63;54.84;96803.28;10281313;28;20034;-29
2023/10/11 15:03:37;;;;;;;6.47;3.65;;;;;;;19.62;54.87;96791.44;10280895;28;20106;-29
2023/10/11 15:08:43;;;;;;;7.82;4.35;;;;;;;19.60;55.04;96798.22;10277565;28;20041;-29
2023/10/11 15:13:43;;;;;;;15.43;4.75;;;;;;;19.59;55.26;96791.47;10285466;28;20425;-28
2023/10/11 15:18:44;;;;;;;5.03;3.23;;;;;;;19.60;55.02;96793.16;10274791;28;20031;-29
2023/10/11 15:23:44;;;;;;;6.68;3.50;;;;;;;19.59;55.12;96804.16;10284945;28;20053;-29
2023/10/11 15:28:45;;;;;;;5.27;3.40;;;;;;;19.59;55.07;96788.94;10286597;28;20038;-30
2023/10/11 15:33:45;;;;;;;14.97;3.80;;;;;;;19.59;55.00;96804.16;10284747;28;20031;-28
2023/10/11 15:38:45;;;;;;;5.82;3.22;;;;;;;19.61;54.92;96789.75;10237574;28;20030;-30
2023/10/11 15:43:46;;;;;;;7.38;3.67;;;;;;;19.62;54.92;96796.53;10232018;28;20030;-31
2023/10/11 15:48:49;;;;;;;7.07;3.72;;;;;;;19.53;54.90;96786.41;10226469;28;20035;-29
2023/10/11 15:53:50;;;;;;;6.53;3.38;;;;;;;19.60;55.04;96803.31;10224021;28;20039;-29
2023/10/11 15:58:52;;;;;;;7.07;3.20;;;;;;;19.57;54.91;96800.75;10226868;28;20490;-29
2023/10/11 16:03:52;;;;;;;4.90;2.67;;;;;;;19.59;55.41;96805.00;10222879;28;20034;-29
2023/10/11 16:08:53;;;;;;;6.30;3.40;;;;;;;19.60;54.83;96805.84;10216569;28;20030;-29
2023/10/11 16:13:53;;;;;;;8.23;2.83;;;;;;;19.59;55.14;96809.25;10219277;28;20302;-30
2023/10/11 16:18:54;;;;;;;5.33;3.10;;;;;;;19.59;55.18;96817.69;10228110;28;20093;-29
2023/10/11 16:23:54;;;;;;;5.50;2.50;;;;;;;19.60;54.94;96808.41;10223166;28;20065;-29
2023/10/11 16:28:56;;;;;;;7.17;2.70;;;;;;;19.59;54.98;96811.78;10253808;28;20086;-30
2023/10/11 16:33:57;;;;;;;11.02;2.63;;;;;;;19.61;54.98;96815.16;10278069;28;20018;-29
2023/10/11 16:38:57;;;;;;;5.18;3.00;;;;;;;19.60;54.97;96813.47;10278520;28;20025;-29
2023/10/11 16:43:58;;;;;;;4.13;2.63;;;;;;;19.60;55.13;96829.53;10282692;28;20060;-29
2023/10/11 16:48:59;;;;;;;8.33;2.90;;;;;;;19.59;55.07;96824.50;10286737;28;20038;-29
2023/10/11 16:54:00;;;;;;;3.50;2.55;;;;;;;19.59;54.96;96829.56;10282478;28;20386;-29
2023/10/11 16:59:00;;;;;;;5.50;2.38;;;;;;;19.58;55.03;96826.16;10283049;28;20023;-29
2023/10/11 17:04:00;;;;;;;6.83;2.33;;;;;;;19.59;55.02;96835.47;10284328;28;20088;-29
2023/10/11 17:09:01;;;;;;;5.27;2.50;;;;;;;19.57;54.99;96842.25;10282498;28;20035;-29
2023/10/11 17:14:01;;;;;;;5.07;3.00;;;;;;;19.58;55.04;96845.66;10281552;28;20776;-28
2023/10/11 17:19:02;;;;;;;3.80;2.30;;;;;;;19.58;55.12;96846.47;10285097;28;20382;-29
2023/10/11 17:24:04;;;;;;;5.97;2.83;;;;;;;19.61;55.19;96855.78;10285823;28;20066;-30
2023/10/11 17:29:08;;;;;;;5.25;2.47;;;;;;;19.60;55.13;96854.13;10289471;28;20035;-29
2023/10/11 17:34:09;;;;;;;6.80;3.45;;;;;;;19.60;55.41;96860.03;10289684;28;20035;-30
2023/10/11 17:39:11;;;;;;;8.20;2.33;;;;;;;19.60;55.24;96874.44;10290046;28;20543;-29
2023/10/11 17:44:12;;;;;;;6.57;2.53;;;;;;;19.65;55.44;96867.63;10283137;28;20089;-29
2023/10/11 17:49:13;;;;;;;4.20;2.95;;;;;;;19.63;54.93;96864.25;10282078;28;20060;-29
2023/10/11 17:54:15;;;;;;;3.38;2.30;;;;;;;19.61;55.25;96869.31;10281595;28;20031;-29
2023/10/11 17:59:17;;;;;;;6.00;2.55;;;;;;;19.62;55.23;96876.13;10275027;28;20504;-30
2023/10/11 18:04:17;;;;;;;2.83;2.03;;;;;;;19.62;55.48;96872.72;10276659;28;20027;-30
2023/10/11 18:09:18;;;;;;;3.33;2.13;;;;;;;19.63;55.19;96874.41;10288625;28;20078;-30
2023/10/11 18:14:20;;;;;;;4.67;2.00;;;;;;;19.66;55.21;96869.34;10284368;28;20026;-29
2023/10/11 18:19:20;;;;;;;4.00;2.10;;;;;;;19.72;54.96;96860.00;10280155;28;20034;-29
2023/10/11 18:24:20;;;;;;;4.03;2.42;;;;;;;19.77;54.62;96870.16;10285679;28;20027;-30
2023/10/11 18:29:21;;;;;;;4.23;2.03;;;;;;;19.82;55.27;96870.97;10278388;28;20077;-29
2023/10/11 18:34:22;;;;;;;4.37;1.93;;;;;;;19.86;54.90;96867.59;10283663;28;20034;-29
2023/10/11 18:39:22;;;;;;;2.95;2.03;;;;;;;19.86;54.99;96872.66;10283231;28;20042;-29
2023/10/11 18:44:23;;;;;;;4.87;1.80;;;;;;;19.85;54.78;96868.44;10283501;28;20498;-29
2023/10/11 18:49:23;;;;;;;4.13;2.20;;;;;;;19.84;54.92;96871.84;10282075;28;20297;-30
2023/10/11 18:54:25;;;;;;;5.60;1.93;;;;;;;19.85;54.74;96876.88;10268007;28;20035;-29
2023/10/11 18:59:26;;;;;;;3.88;1.75;;;;;;;19.84;54.99;96880.28;10282544;28;20035;-29
2023/10/11 19:04:26;;;;;;;3.17;1.60;;;;;;;19.83;54.90;96877.78;10272639;28;20046;-29
2023/10/11 19:09:27;;;;;;;3.87;1.80;;;;;;;19.83;54.86;96873.50;10282493;28;20043;-30
2023/10/11 19:14:28;;;;;;;4.77;2.20;;;;;;;19.83;54.80;96865.91;10283669;28;20429;-30
2023/10/11 19:19:29;;;;;;;7.00;2.38;;;;;;;19.86;54.84;96867.59;10281202;28;20035;-29
2023/10/11 19:24:29;;;;;;;4.50;1.43;;;;;;;19.88;54.75;96860.78;10282478;28;20054;-28
2023/10/11 19:29:29;;;;;;;6.00;2.27;;;;;;;19.88;54.82;96855.72;10265818;28;20302;-29
2023/10/11 19:34:30;;;;;;;5.73;2.67;;;;;;;19.87;54.76;96864.19;10285270;28;20030;-29
2023/10/11 19:39:30;;;;;;;6.83;2.40;;;;;;;19.86;55.29;96868.41;10271142;28;20511;-29
2023/10/11 19:44:31;;;;;;;3.05;2.00;;;;;;;19.86;54.97;96877.75;10286171;28;20047;-29
2023/10/11 19:49:31;;;;;;;3.70;1.73;;;;;;;19.86;55.00;96872.66;10278959;28;20034;-29
2023/10/11 19:54:32;;;;;;;3.70;1.77;;;;;;;19.82;55.01;96869.28;10285413;28;20093;-29
2023/10/11 19:59:34;;;;;;;3.65;2.00;;;;;;;19.81;55.05;96848.97;10290469;28;20503;-30
2023/10/11 20:04:34;;;;;;;3.35;2.10;;;;;;;19.81;54.53;96854.03;10282414;28;20041;-29
2023/10/11 20:09:36;;;;;;;3.30;1.80;;;;;;;19.80;55.00;96872.69;10285353;28;20366;-29
2023/10/11 20:14:37;;;;;;;2.95;1.73;;;;;;;19.80;55.17;96882.84;10286137;28;20485;-30
2023/10/11 20:19:37;;;;;;;2.60;1.77;;;;;;;19.78;54.98;96882.00;10293472;28;20034;-28
2023/10/11 20:24:38;;;;;;;5.23;2.10;;;;;;;19.77;54.87;96885.41;10292960;28;20054;-29
2023/10/11 20:29:40;;;;;;;3.55;2.13;;;;;;;19.77;55.16;96893.03;10291888;28;20784;-30
2023/10/11 20:34:40;;;;;;;6.55;1.80;;;;;;;19.76;54.96;96894.69;10292773;28;20374;-29
2023/10/11 20:39:41;;;;;;;3.27;1.90;;;;;;;19.77;54.91;96903.19;10290993;28;20031;-29
2023/10/11 20:44:43;;;;;;;3.63;1.80;;;;;;;19.76;55.09;96898.94;10291726;28;20282;-29
2023/10/11 20:49:43;;;;;;;4.07;2.00;;;;;;;19.76;55.21;96886.25;10292360;28;20045;-29
2023/10/11 20:54:47;;;;;;;2.33;1.63;;;;;;;19.76;55.03;96896.41;10291691;28;20111;-29
2023/10/11 20:59:47;;;;;;;3.20;2.30;;;;;;;19.75;54.93;96889.66;10287307;28;20027;-30
2023/10/11 21:04:47;;;;;;;3.53;1.93;;;;;;;19.76;54.97;96888.78;10295086;28;20031;-29
2023/10/11 21:09:48;;;;;;;3.63;2.13;;;;;;;19.75;54.97;96890.47;10291043;28;20353;-28
2023/10/11 21:14:49;;;;;;;2.67;1.40;;;;;;;19.73;54.95;96876.94;10290727;28;20033;-28
2023/10/11 21:19:50;;;;;;;2.00;1.60;;;;;;;19.75;54.92;96880.31;10290662;28;20034;-29
2023/10/11 21:24:50;;;;;;;2.55;1.40;;;;;;;19.74;55.02;96886.25;10291150;28;20074;-29
2023/10/11 21:29:50;;;;;;;3.87;1.67;;;;;;;19.73;55.14;96886.25;10288488;28;20027;-29
2023/10/11 21:34:51;;;;;;;2.23;1.30;;;;;;;19.74;55.14;96886.25;10290722;28;20125;-29
2023/10/11 21:39:51;;;;;;;2.53;1.60;;;;;;;19.74;54.90;96896.41;10290092;28;20065;-29
2023/10/11 21:44:51;;;;;;;2.10;1.70;;;;;;;19.73;54.98;96883.69;10289388;28;20480;-29
2023/10/11 21:49:52;;;;;;;1.50;1.20;;;;;;;19.73;54.92;96876.06;10289994;28;20035;-29
2023/10/11 21:54:53;;;;;;;2.23;1.50;;;;;;;19.72;54.96;96870.16;10289577;28;20031;-28
2023/10/11 21:59:55;;;;;;;2.35;1.23;;;;;;;19.72;54.72;96854.06;10284421;28;20026;-28
2023/10/11 22:04:59;;;;;;;3.45;1.60;;;;;;;19.72;54.91;96844.75;10289706;28;20106;-28
2023/10/11 22:10:00;;;;;;;3.40;1.85;;;;;;;19.74;55.03;96837.13;10288538;28;20035;-29
2023/10/11 22:15:04;;;;;;;3.42;1.45;;;;;;;19.73;55.10;96831.22;10288166;28;20031;-29
2023/10/11 22:20:05;;;;;;;2.65;2.38;;;;;;;19.74;55.13;96824.41;10288906;28;20015;-29
2023/10/11 22:25:06;;;;;;;1.63;1.33;;;;;;;19.72;54.91;96833.75;10288535;28;20031;-29
2023/10/11 22:30:10;;;;;;;2.35;1.58;;;;;;;19.72;54.80;96838.81;10287774;28;20477;-29
2023/10/11 22:35:10;;;;;;;2.90;1.52;;;;;;;19.72;55.01;96839.69;10285879;28;20385;-29
2023/10/11 22:40:15;;;;;;;1.80;1.40;;;;;;;19.73;55.01;96835.44;10287419;28;20022;-30
2023/10/11 22:45:21;;;;;;;2.28;1.30;;;;;;;19.72;54.88;96832.06;10286928;28;20166;-28
2023/10/11 22:50:22;;;;;;;2.08;1.38;;;;;;;19.72;54.97;96836.28;10288064;28;20031;-28
2023/10/11 22:55:22;;;;;;;1.93;1.30;;;;;;;19.72;54.84;96844.75;10287153;28;20031;-28
2023/10/11 23:00:24;;;;;;;2.23;1.60;;;;;;;19.73;55.14;96843.06;10283652;28;20034;-29
2023/10/11 23:05:36;;;;;;;2.53;1.38;;;;;;;19.72;54.92;96849.84;10287409;28;20034;-29
2023/10/11 23:10:42;;;;;;;4.00;1.48;;;;;;;19.72;54.73;96860.00;10279774;28;20039;-28
2023/10/11 23:15:52;;;;;;;2.58;1.55;;;;;;;19.72;54.89;96866.78;10286142;28;20486;-29
2023/10/11 23:21:00;;;;;;;2.88;1.52;;;;;;;19.70;54.66;96863.41;10286549;28;20114;-29
2023/10/11 23:26:06;;;;;;;1.38;1.10;;;;;;;19.70;54.44;96850.69;10286527;28;20035;-29
2023/10/11 23:31:08;;;;;;;;;;;;;;;19.70;54.89;96855.78;10286251;28;20034;-29
2023/10/11 23:36:11;;;;;;;2.72;1.33;;;;;;;19.69;54.53;96843.94;10284865;28;19909;-29
2023/10/11 23:41:14;;;;;;;2.00;1.25;;;;;;;19.70;54.85;96848.16;10282964;28;20109;-29
2023/10/11 23:46:15;;;;;;;2.63;1.65;;;;;;;19.70;55.03;96848.16;10278935;28;20043;-29
2023/10/11 23:51:16;;;;;;;1.42;1.27;;;;;;;19.69;54.85;96849.00;10289485;28;20022;-29
2023/10/11 23:56:19;;;;;;;1.57;1.30;;;;;;;19.69;54.87;96860.00;10289729;28;20046;-29
